aviador You're here:

KGUS Decoded Metar

PERU in IN, USA
Report Time2017-07-22 22:58:00
UTC Time2017-07-23 00:49:33
Flight Rules Old
Wind310° at 08 kt
W.Decomp.*RWY 23: 1.1 kt HW 7.9 kt RCW
W.Rank310° ranks 20
Current wind is below 310° avg. (9.0)
Visibility9999 m
Phenomena:N/A
Clouds:Few 075 Hf
Expected CloudBase > 2,800 ft AGL from Temp-Dew spread
CeilingNone
Temp29°C (ISA +16)
Dew Point22°C (66% RH)
Heat Index32.0°C
QNH1009 hPa
Density Alt3,087 ft
Elevation810 ft
Report Wrong Elevation
Raw Report
KGUS 222258Z AUTO 31008KT 10SM FEW075 29/22 A2981 RMK AO2 SLP091
T02860220=

Extra information for KGUS:More info

Metar Taf Metar & Taf Last 4 Metars F.Rules Stats Wind Profile Meteogram Temp Stats Airport Information Weather charts Add Link Nearby VenuesMetar ALERT Operation Metar Decoded Social comments

AIRNAV info for KGUS